El Aayoune, Western Sahara

9:55 AM WET on March 06, 2015 (GMT +0000)
Hassan I | Change Station
CLOSE
Current Station
Airport
Location: Laayoune/Hassan Isl,
Elevation: 207 ft
Nearby Weather Stations

Elev 207 ft 27.14 °N, 13.23 °W | Updated 55 minutes ago

Clear
Clear
59 °F
Feels Like 59 °F
N
7
Wind Variable Wind from ENE

Today
High -- | Low -- °F
--% Chance of Precip.
Yesterday
High -- | Low -- °F
Precip. -- in
7:12 AM 6:56 PM
Full, 100% visible
Pressure 30.06 in
Visibility 5.0 miles
Clouds
Dew Point 57 °F
Humidity 94%
Rainfall 0.00 in
Snow Depth Not available.
UV Not available.
Pollen Not available.
Air Quality Not available.
Flu Activity Not available.
METAR GMML 060900Z 07006KT 8000 NSC 15/14 Q1018 NOSIG

More Conditions Fewer Conditions

Pressure 30.06 in
Visibility 5.0 miles
Clouds
Dew Point 57 °F
Humidity 94%
Rainfall 0.00 in
Snow Depth Not available.
UV Not available.
Pollen Not available.
Air Quality Not available.
Flu Activity Not available.
METAR GMML 060900Z 07006KT 8000 NSC 15/14 Q1018 NOSIG

More Conditions Fewer Conditions

10-Day Weather Forecast

Almanac

Astronomy

Mar. 06, 2015 Rise Set
Actual Time
Civil Twilight
Nautical Twilight
Astronomical Twilight
Moon
Length of Visible Light
Length of Day
Tomorrow will be .
, % of the Moon is Illuminated

Today's Extremes

Country Highs Country Lows

Community

WunderPhotos

Upload Photos

1,803,213 photos uploaded!

WunderBlogs® & News

Nearby

Air Quality

  Air Quality AQ Index Pollutant
Not available.

Snow Depth

Station Depth Elevation

Earthquake Activity

City Distance Mag. Time & Date
Minimum magnitude displayed is 2.5.

Coastal Water Temperatures

Place Temperature

Nearby Weather Stations